Time;durP1;ratioP1;P1;durP2;ratioP2;P2;SDS_P1;SDS_P2;PMS_P1;PMS_P2;Temp;Humidity;BMP_temperature;BMP_pressure;BME280_temperature;BME280_humidity;BME280_pressure;Samples;Min_cycle;Max_cycle;Signal;HPM_P1;HPM_P2
2021/05/22 00:01:18;;;;;;;5.77;2.20;;;;;;;;;;5096531;28;20409;-55
2021/05/22 00:03:45;;;;;;;7.77;2.90;;;;;;;;;;5096795;28;20448;-52
2021/05/22 00:06:12;;;;;;;8.20;2.57;;;;;;;;;;5095345;28;20499;-56
2021/05/22 00:08:39;;;;;;;7.63;2.70;;;;;;;;;;5096053;28;20452;-54
2021/05/22 00:11:05;;;;;;;6.20;2.40;;;;;;;;;;5096323;28;20456;-56
2021/05/22 00:13:52;;;;;;;5.43;2.00;;;;;;;;;;5096012;28;20440;-57
2021/05/22 00:16:23;;;;;;;9.60;2.10;;;;;;;;;;5096268;28;20440;-56
2021/05/22 00:18:50;;;;;;;5.53;3.03;;;;;;;;;;5096155;28;20494;-57
2021/05/22 00:24:20;;;;;;;32.90;22.33;;;;;;;;;;5096391;28;20415;-57
2021/05/22 00:26:47;;;;;;;86.37;63.13;;;;;;;;;;5096203;28;20498;-49
2021/05/22 00:29:14;;;;;;;21.23;13.73;;;;;;;;;;5095967;28;20464;-55
2021/05/22 00:31:42;;;;;;;34.43;24.97;;;;;;;;;;5095865;28;20452;-56
2021/05/22 00:34:15;;;;;;;7.13;3.10;;;;;;;;;;5096205;28;20436;-59
2021/05/22 00:36:42;;;;;;;7.13;3.00;;;;;;;;;;5095490;28;20448;-58
2021/05/22 00:39:10;;;;;;;6.63;2.40;;;;;;;;;;5095890;28;20486;-56
2021/05/22 00:41:37;;;;;;;7.73;2.03;;;;;;;;;;5095630;28;20456;-58
2021/05/22 00:44:04;;;;;;;8.53;2.37;;;;;;;;;;5095121;28;20448;-54
2021/05/22 00:46:31;;;;;;;5.13;2.10;;;;;;;;;;5095437;28;20494;-54
2021/05/22 00:48:59;;;;;;;7.07;2.50;;;;;;;;;;5096032;28;20432;-49
2021/05/22 00:51:26;;;;;;;7.77;3.43;;;;;;;;;;5095358;28;20533;-54
2021/05/22 00:53:53;;;;;;;7.57;3.00;;;;;;;;;;5095887;28;20474;-59
2021/05/22 00:56:19;;;;;;;7.40;2.20;;;;;;;;;;5095272;28;20482;-56
2021/05/22 00:58:49;;;;;;;3.60;1.70;;;;;;;;;;5095305;28;20496;-54
2021/05/22 01:01:16;;;;;;;8.13;1.97;;;;;;;;;;5095279;28;20582;-56
2021/05/22 01:03:44;;;;;;;6.00;1.63;;;;;;;;;;5095587;28;20460;-55
2021/05/22 01:06:31;;;;;;;2.97;1.40;;;;;;;;;;5095379;28;20483;-53
2021/05/22 01:09:01;;;;;;;6.70;1.90;;;;;;;;;;5095164;28;20455;-60
2021/05/22 01:11:29;;;;;;;5.70;2.40;;;;;;;;;;5095639;28;20511;-55
2021/05/22 01:14:17;;;;;;;7.47;2.23;;;;;;;;;;5095159;28;20456;-56
2021/05/22 01:16:44;;;;;;;6.20;2.23;;;;;;;;;;5096444;28;20428;-51
2021/05/22 01:19:16;;;;;;;5.93;2.10;;;;;;;;;;5099869;28;20487;-51
2021/05/22 01:21:49;;;;;;;8.13;1.60;;;;;;;;;;5099216;28;20495;-55
2021/05/22 01:24:20;;;;;;;4.87;2.00;;;;;;;;;;5099278;28;20436;-55
2021/05/22 01:26:48;;;;;;;7.03;2.13;;;;;;;;;;5099653;28;20476;-57
2021/05/22 01:29:20;;;;;;;4.93;1.70;;;;;;;;;;5099864;28;20452;-60
2021/05/22 01:31:50;;;;;;;3.83;1.20;;;;;;;;;;5099372;28;20424;-58
2021/05/22 01:34:17;;;;;;;4.50;2.07;;;;;;;;;;5099984;28;20440;-56
2021/05/22 01:36:50;;;;;;;5.77;1.60;;;;;;;;;;5098904;28;20435;-58
2021/05/22 01:39:25;;;;;;;4.10;1.30;;;;;;;;;;5098922;28;20445;-57
2021/05/22 01:41:53;;;;;;;4.03;1.40;;;;;;;;;;5098402;28;20501;-55
2021/05/22 01:44:20;;;;;;;6.77;1.50;;;;;;;;;;5098936;28;20456;-59
2021/05/22 01:46:49;;;;;;;4.10;1.33;;;;;;;;;;5098887;28;20467;-56
2021/05/22 01:49:18;;;;;;;5.97;1.50;;;;;;;;;;5098755;28;20452;-57
2021/05/22 01:51:45;;;;;;;5.07;1.60;;;;;;;;;;5098786;28;20483;-53
2021/05/22 01:54:12;;;;;;;8.53;1.83;;;;;;;;;;5099038;28;20456;-59
2021/05/22 01:56:41;;;;;;;8.27;1.87;;;;;;;;;;5098703;28;20464;-54
2021/05/22 01:59:08;;;;;;;9.17;2.13;;;;;;;;;;5096760;28;20581;-59
2021/05/22 02:01:35;;;;;;;6.10;1.47;;;;;;;;;;5098220;28;20456;-60
2021/05/22 02:04:14;;;;;;;5.17;1.53;;;;;;;;;;5098601;28;20447;-61
2021/05/22 02:06:42;;;;;;;5.97;1.80;;;;;;;;;;5098728;28;20506;-53
2021/05/22 02:09:09;;;;;;;5.50;1.30;;;;;;;;;;5098815;28;20432;-55
2021/05/22 02:14:42;;;;;;;8.00;1.30;;;;;;;;;;5099094;28;20403;-52
2021/05/22 02:17:10;;;;;;;5.53;1.90;;;;;;;;;;5099250;28;20474;-58
2021/05/22 02:19:38;;;;;;;7.30;1.50;;;;;;;;;;5098294;28;20460;-53
2021/05/22 02:22:07;;;;;;;3.87;1.60;;;;;;;;;;5098384;28;20474;-58
2021/05/22 02:25:08;;;;;;;3.60;1.53;;;;;;;;;;5098265;28;20452;-54
2021/05/22 02:27:36;;;;;;;6.23;1.37;;;;;;;;;;5098024;28;20483;-55
2021/05/22 02:30:04;;;;;;;3.70;1.57;;;;;;;;;;5098251;28;20471;-53
2021/05/22 02:35:35;;;;;;;3.50;1.67;;;;;;;;;;5097933;28;20435;-56
2021/05/22 02:38:02;;;;;;;8.90;1.53;;;;;;;;;;5098258;28;20471;-59
2021/05/22 02:40:39;;;;;;;7.67;2.07;;;;;;;;;;5097842;28;20460;-60
2021/05/22 02:43:06;;;;;;;8.40;2.87;;;;;;;;;;5096216;28;20483;-60
2021/05/22 02:45:36;;;;;;;3.03;1.23;;;;;;;;;;5098475;28;20460;-51
2021/05/22 02:48:40;;;;;;;3.97;1.60;;;;;;;;;;5097681;28;20483;-52
2021/05/22 02:51:09;;;;;;;5.30;1.40;;;;;;;;;;5095683;28;20495;-58
2021/05/22 02:53:37;;;;;;;4.23;1.27;;;;;;;;;;5097892;28;20450;-54
2021/05/22 02:56:17;;;;;;;3.97;1.70;;;;;;;;;;5097940;28;20538;-52
2021/05/22 02:58:46;;;;;;;11.10;1.90;;;;;;;;;;5097640;28;20436;-56
2021/05/22 03:01:14;;;;;;;13.88;2.50;;;;;;;;;;5111131;28;20466;-52
2021/05/22 03:03:46;;;;;;;7.57;1.60;;;;;;;;;;5117822;28;20208;-57
2021/05/22 03:06:16;;;;;;;3.10;1.43;;;;;;;;;;5117447;28;20463;-51
2021/05/22 03:08:43;;;;;;;8.23;2.30;;;;;;;;;;5115247;28;20479;-56
2021/05/22 03:11:12;;;;;;;7.80;1.43;;;;;;;;;;5097627;28;20459;-57
2021/05/22 03:13:40;;;;;;;6.40;1.70;;;;;;;;;;5078393;28;20447;-53
2021/05/22 03:16:32;;;;;;;7.70;1.63;;;;;;;;;;5097178;28;20455;-55
2021/05/22 03:19:00;;;;;;;6.73;1.70;;;;;;;;;;5097480;28;20459;-56
2021/05/22 03:21:26;;;;;;;7.80;2.03;;;;;;;;;;5096812;28;20506;-58
2021/05/22 03:23:53;;;;;;;5.63;1.57;;;;;;;;;;5096596;28;20452;-54
2021/05/22 03:26:20;;;;;;;5.60;1.90;;;;;;;;;;5096735;28;20517;-52
2021/05/22 03:28:47;;;;;;;5.13;1.70;;;;;;;;;;5096752;28;20456;-54
2021/05/22 03:31:35;;;;;;;3.20;1.53;;;;;;;;;;5096892;28;20457;-50
2021/05/22 03:34:03;;;;;;;4.43;1.77;;;;;;;;;;5096812;28;20480;-51
2021/05/22 03:36:30;;;;;;;5.20;1.80;;;;;;;;;;5097318;28;20444;-55
2021/05/22 03:39:14;;;;;;;2.70;1.10;;;;;;;;;;5096901;28;20617;-56
2021/05/22 03:41:41;;;;;;;7.93;1.93;;;;;;;;;;5096301;28;20459;-55
2021/05/22 03:44:08;;;;;;;8.40;2.70;;;;;;;;;;5096248;28;20483;-54
2021/05/22 03:46:36;;;;;;;5.90;1.60;;;;;;;;;;5096325;28;20878;-55
2021/05/22 03:49:04;;;;;;;4.80;1.33;;;;;;;;;;5096700;28;20493;-56
2021/05/22 03:51:32;;;;;;;7.03;1.60;;;;;;;;;;5096861;28;20690;-56
2021/05/22 03:54:15;;;;;;;8.63;2.10;;;;;;;;;;5096830;28;20448;-57
2021/05/22 03:56:42;;;;;;;3.03;1.23;;;;;;;;;;5096995;28;20444;-54
2021/05/22 03:59:09;;;;;;;4.80;1.87;;;;;;;;;;5096364;28;20463;-55
2021/05/22 04:01:49;;;;;;;9.67;1.70;;;;;;;;;;5096284;28;20416;-54
2021/05/22 04:04:17;;;;;;;6.70;1.37;;;;;;;;;;5096293;28;20455;-59
2021/05/22 04:06:43;;;;;;;6.93;1.50;;;;;;;;;;5096017;28;20492;-54
2021/05/22 04:09:14;;;;;;;12.20;2.37;;;;;;;;;;5096257;28;20482;-51
2021/05/22 04:11:41;;;;;;;5.53;2.07;;;;;;;;;;5096321;28;20456;-51
2021/05/22 04:14:07;;;;;;;10.30;1.83;;;;;;;;;;5096124;28;20501;-58
2021/05/22 04:16:54;;;;;;;6.87;2.70;;;;;;;;;;5096130;28;20437;-58
2021/05/22 04:19:22;;;;;;;5.20;2.00;;;;;;;;;;5096168;28;20590;-55
2021/05/22 04:21:49;;;;;;;10.53;2.90;;;;;;;;;;5095727;28;20456;-58
2021/05/22 04:24:16;;;;;;;5.10;2.10;;;;;;;;;;5096234;28;20459;-54
2021/05/22 04:26:43;;;;;;;7.20;1.57;;;;;;;;;;5096415;28;20480;-56
2021/05/22 04:29:10;;;;;;;10.60;3.27;;;;;;;;;;5095678;28;20479;-55
2021/05/22 04:34:41;;;;;;;14.70;2.40;;;;;;;;;;5095899;28;20419;-54
2021/05/22 04:37:07;;;;;;;6.80;1.57;;;;;;;;;;5095515;28;20448;-57
2021/05/22 04:39:46;;;;;;;5.27;1.80;;;;;;;;;;5096324;28;20468;-56
2021/05/22 04:42:13;;;;;;;3.73;1.40;;;;;;;;;;5075885;28;20461;-59
2021/05/22 04:44:40;;;;;;;7.20;1.77;;;;;;;;;;5087733;28;20448;-57
2021/05/22 04:47:15;;;;;;;3.67;1.20;;;;;;;;;;5095642;28;20488;-55
2021/05/22 04:49:43;;;;;;;6.40;1.50;;;;;;;;;;5095428;28;20435;-56
2021/05/22 04:52:10;;;;;;;6.63;1.40;;;;;;;;;;5094857;28;20490;-56
2021/05/22 04:54:37;;;;;;;7.53;1.70;;;;;;;;;;5095849;28;20456;-59
2021/05/22 04:57:04;;;;;;;6.97;1.67;;;;;;;;;;5095506;28;20455;-51
2021/05/22 04:59:31;;;;;;;4.50;1.50;;;;;;;;;;5095541;28;20436;-54
2021/05/22 05:02:07;;;;;;;6.63;1.63;;;;;;;;;;5095988;28;20433;-59
2021/05/22 05:04:34;;;;;;;6.03;1.20;;;;;;;;;;5088496;28;20459;-58
2021/05/22 05:07:04;;;;;;;6.03;1.53;;;;;;;;;;5074298;28;20512;-54
2021/05/22 05:09:32;;;;;;;8.07;1.50;;;;;;;;;;5074721;28;20519;-57
2021/05/22 05:12:03;;;;;;;6.10;1.50;;;;;;;;;;5074889;28;20453;-58
2021/05/22 05:14:32;;;;;;;6.07;1.17;;;;;;;;;;5075325;28;20467;-61
2021/05/22 05:17:00;;;;;;;8.80;1.70;;;;;;;;;;5075425;28;20505;-61
2021/05/22 05:19:28;;;;;;;7.17;1.57;;;;;;;;;;5074609;28;20487;-55
2021/05/22 05:22:04;;;;;;;5.83;1.77;;;;;;;;;;5080528;28;20462;-60
2021/05/22 05:24:31;;;;;;;6.87;1.50;;;;;;;;;;5115683;28;20466;-57
2021/05/22 05:26:58;;;;;;;4.83;1.40;;;;;;;;;;5115517;28;20509;-57
2021/05/22 05:29:31;;;;;;;5.93;3.07;;;;;;;;;;5115770;28;20416;-55
2021/05/22 05:32:00;;;;;;;6.10;1.50;;;;;;;;;;5115510;28;20475;-53
2021/05/22 05:34:26;;;;;;;10.13;2.43;;;;;;;;;;5102075;28;20493;-59
2021/05/22 05:37:07;;;;;;;10.03;1.80;;;;;;;;;;5094309;28;20487;-51
2021/05/22 05:39:33;;;;;;;7.37;1.73;;;;;;;;;;5094950;28;20478;-55
2021/05/22 05:42:00;;;;;;;6.70;2.23;;;;;;;;;;5094625;28;20455;-55
2021/05/22 05:44:46;;;;;;;7.80;1.23;;;;;;;;;;5096149;28;20435;-54
2021/05/22 05:47:13;;;;;;;8.77;1.90;;;;;;;;;;5094774;28;20484;-61
2021/05/22 05:49:40;;;;;;;6.13;1.40;;;;;;;;;;5095036;28;20459;-60
2021/05/22 05:52:09;;;;;;;6.97;1.60;;;;;;;;;;5094585;28;20667;-55
2021/05/22 05:54:36;;;;;;;7.50;2.17;;;;;;;;;;5094911;28;20456;-53
2021/05/22 05:57:02;;;;;;;6.40;2.07;;;;;;;;;;5095111;28;20455;-58
2021/05/22 05:59:30;;;;;;;2.50;1.00;;;;;;;;;;5095012;28;20463;-57
2021/05/22 06:01:57;;;;;;;4.53;1.10;;;;;;;;;;5094713;28;20432;-53
2021/05/22 06:04:24;;;;;;;3.10;1.10;;;;;;;;;;5097952;28;20456;-55
2021/05/22 06:07:04;;;;;;;3.13;1.37;;;;;;;;;;5098226;28;20488;-49
2021/05/22 06:09:32;;;;;;;7.13;1.40;;;;;;;;;;5098250;28;20455;-62
2021/05/22 06:11:59;;;;;;;3.43;1.17;;;;;;;;;;5097883;28;20519;-52
2021/05/22 06:14:30;;;;;;;7.73;1.40;;;;;;;;;;5097697;28;20432;-58
2021/05/22 06:16:57;;;;;;;3.40;1.00;;;;;;;;;;5097852;28;20546;-54
2021/05/22 06:19:24;;;;;;;5.60;1.00;;;;;;;;;;5098013;28;20463;-52
2021/05/22 06:24:55;;;;;;;3.20;0.90;;;;;;;;;;5095615;28;20502;-58
2021/05/22 06:27:22;;;;;;;5.87;2.13;;;;;;;;;;5097415;28;20487;-60
2021/05/22 06:30:00;;;;;;;6.60;1.20;;;;;;;;;;5097627;28;20441;-56
2021/05/22 06:32:27;;;;;;;5.57;1.23;;;;;;;;;;5097014;28;20439;-58
2021/05/22 06:34:54;;;;;;;6.07;0.97;;;;;;;;;;5097479;28;20459;-55
2021/05/22 06:37:26;;;;;;;3.90;1.10;;;;;;;;;;5097571;28;20423;-55
2021/05/22 06:39:53;;;;;;;5.80;0.90;;;;;;;;;;5097327;28;20448;-56
2021/05/22 06:42:21;;;;;;;3.23;1.07;;;;;;;;;;5097078;28;20489;-61
2021/05/22 06:44:56;;;;;;;4.00;1.00;;;;;;;;;;5097044;28;20457;-57
2021/05/22 06:47:24;;;;;;;3.20;1.57;;;;;;;;;;5097421;28;20502;-54
2021/05/22 06:49:57;;;;;;;4.80;1.03;;;;;;;;;;5097238;28;20510;-58
2021/05/22 06:52:25;;;;;;;2.87;1.10;;;;;;;;;;5096892;28;20448;-60
2021/05/22 06:54:52;;;;;;;2.90;0.87;;;;;;;;;;5097414;28;20456;-60
2021/05/22 06:57:35;;;;;;;1.70;0.70;;;;;;;;;;5096419;28;20443;-59
2021/05/22 07:00:05;;;;;;;2.30;0.90;;;;;;;;;;5096427;28;20444;-61
2021/05/22 07:02:33;;;;;;;5.10;1.43;;;;;;;;;;5096346;28;20460;-59
2021/05/22 07:05:07;;;;;;;3.37;0.90;;;;;;;;;;5096914;28;20512;-58
2021/05/22 07:07:36;;;;;;;3.50;1.00;;;;;;;;;;5096762;28;20491;-59
2021/05/22 07:10:03;;;;;;;3.63;0.83;;;;;;;;;;5096937;28;20432;-55
2021/05/22 07:12:37;;;;;;;5.10;1.20;;;;;;;;;;5096612;28;20486;-57
2021/05/22 07:15:04;;;;;;;2.10;0.90;;;;;;;;;;5095710;28;20547;-57
2021/05/22 07:17:31;;;;;;;4.83;1.17;;;;;;;;;;5096562;28;20452;-54
2021/05/22 07:20:14;;;;;;;4.67;1.17;;;;;;;;;;5097092;28;20452;-59
2021/05/22 07:22:42;;;;;;;7.33;1.77;;;;;;;;;;5090084;28;20449;-59
2021/05/22 07:25:10;;;;;;;3.50;1.00;;;;;;;;;;5076761;28;20421;-56
2021/05/22 07:27:56;;;;;;;6.93;1.33;;;;;;;;;;5076739;28;20520;-53
2021/05/22 07:30:24;;;;;;;3.27;1.67;;;;;;;;;;5075968;28;20501;-55
2021/05/22 07:32:50;;;;;;;4.70;1.87;;;;;;;;;;5076579;28;20679;-57
2021/05/22 07:35:20;;;;;;;13.17;1.67;;;;;;;;;;5090564;28;20444;-61
2021/05/22 07:37:47;;;;;;;4.80;1.33;;;;;;;;;;5096759;28;20460;-56
2021/05/22 07:40:14;;;;;;;4.87;0.93;;;;;;;;;;5096585;28;20420;-55
2021/05/22 07:42:53;;;;;;;4.60;1.27;;;;;;;;;;5096757;28;20466;-61
2021/05/22 07:45:26;;;;;;;3.70;1.30;;;;;;;;;;5096075;28;20456;-52
2021/05/22 07:47:53;;;;;;;3.33;1.30;;;;;;;;;;5096479;28;20487;-53
2021/05/22 07:50:30;;;;;;;5.23;1.13;;;;;;;;;;5082219;28;20452;-54
2021/05/22 07:52:57;;;;;;;5.07;1.30;;;;;;;;;;5096195;28;20470;-53
2021/05/22 07:55:24;;;;;;;4.73;1.20;;;;;;;;;;5096131;28;20562;-60
2021/05/22 07:58:10;;;;;;;4.63;1.20;;;;;;;;;;5096209;28;20471;-58
2021/05/22 08:00:38;;;;;;;8.10;1.50;;;;;;;;;;5096472;28;20452;-57
2021/05/22 08:03:05;;;;;;;4.90;1.50;;;;;;;;;;5095461;28;20459;-59
2021/05/22 08:05:35;;;;;;;2.80;1.00;;;;;;;;;;5096140;28;20471;-55
2021/05/22 08:08:02;;;;;;;4.90;1.10;;;;;;;;;;5093975;28;20479;-62
2021/05/22 08:10:29;;;;;;;7.00;1.50;;;;;;;;;;5095294;28;20463;-56
2021/05/22 08:13:05;;;;;;;6.93;1.63;;;;;;;;;;5095653;28;20481;-55
2021/05/22 08:15:32;;;;;;;5.70;1.23;;;;;;;;;;5094937;28;20459;-50
2021/05/22 08:17:59;;;;;;;4.80;1.00;;;;;;;;;;5095391;28;20429;-57
2021/05/22 08:20:38;;;;;;;4.37;1.13;;;;;;;;;;5095003;28;20531;-56
2021/05/22 08:23:05;;;;;;;3.87;1.83;;;;;;;;;;5095113;28;20452;-57
2021/05/22 08:25:32;;;;;;;6.43;1.50;;;;;;;;;;5095124;28;20515;-58
2021/05/22 08:28:21;;;;;;;4.43;1.30;;;;;;;;;;5095520;28;20468;-58
2021/05/22 08:31:00;;;;;;;3.80;1.30;;;;;;;;;;5095796;28;20472;-57
2021/05/22 08:33:28;;;;;;;6.50;1.10;;;;;;;;;;5094918;28;20449;-55
2021/05/22 08:41:55;;;;;;;2.17;0.93;;;;;;;;;;5094702;28;20426;-60
2021/05/22 08:44:22;;;;;;;2.83;1.10;;;;;;;;;;5094240;28;20441;-55
2021/05/22 08:46:57;;;;;;;3.50;1.30;;;;;;;;;;5094677;28;20487;-59
2021/05/22 08:49:24;;;;;;;3.70;1.63;;;;;;;;;;5089993;28;20499;-57
2021/05/22 08:51:51;;;;;;;4.47;1.60;;;;;;;;;;5094421;28;20448;-58
2021/05/22 08:54:44;;;;;;;3.70;1.20;;;;;;;;;;5090267;28;20620;-55
2021/05/22 08:57:12;;;;;;;4.40;1.33;;;;;;;;;;5086677;28;20492;-56
2021/05/22 08:59:41;;;;;;;4.10;1.33;;;;;;;;;;5095066;28;20440;-55
2021/05/22 09:02:09;;;;;;;3.13;1.00;;;;;;;;;;5094756;28;20464;-56
2021/05/22 09:04:51;;;;;;;2.80;1.30;;;;;;;;;;5094652;28;20421;-58
2021/05/22 09:07:24;;;;;;;5.83;1.57;;;;;;;;;;5093964;28;20502;-54
2021/05/22 09:09:51;;;;;;;3.20;1.00;;;;;;;;;;5081656;28;20451;-58
2021/05/22 09:12:19;;;;;;;4.20;1.33;;;;;;;;;;5094760;28;20459;-55
2021/05/22 09:15:07;;;;;;;6.47;1.30;;;;;;;;;;5094849;28;20448;-56
2021/05/22 09:17:35;;;;;;;4.33;1.47;;;;;;;;;;5091616;28;20490;-57
2021/05/22 09:20:12;;;;;;;3.80;0.93;;;;;;;;;;5093513;28;20452;-54
2021/05/22 09:22:42;;;;;;;3.37;1.20;;;;;;;;;;5075440;28;20483;-53
2021/05/22 09:25:11;;;;;;;3.97;1.00;;;;;;;;;;5084619;28;20500;-53
2021/05/22 09:28:03;;;;;;;6.57;1.70;;;;;;;;;;5094592;28;20517;-52
2021/05/22 09:30:31;;;;;;;3.87;1.10;;;;;;;;;;5094263;28;20455;-55
2021/05/22 09:33:05;;;;;;;6.47;1.40;;;;;;;;;;5093670;28;20417;-60
2021/05/22 09:35:36;;;;;;;4.40;1.00;;;;;;;;;;5094015;28;20465;-56
2021/05/22 09:38:13;;;;;;;4.70;1.27;;;;;;;;;;5077417;28;20432;-55
2021/05/22 09:40:42;;;;;;;4.07;1.00;;;;;;;;;;5096894;28;20464;-53
2021/05/22 09:43:13;;;;;;;3.77;1.30;;;;;;;;;;5098014;28;20494;-59
2021/05/22 09:45:44;;;;;;;5.47;1.33;;;;;;;;;;5097333;28;20469;-58
2021/05/22 09:48:19;;;;;;;3.23;1.00;;;;;;;;;;5097491;28;20472;-56
2021/05/22 09:50:48;;;;;;;4.47;1.03;;;;;;;;;;5097410;28;20447;-56
2021/05/22 09:53:40;;;;;;;4.10;1.43;;;;;;;;;;5097481;28;20452;-53
2021/05/22 09:56:14;;;;;;;6.50;1.20;;;;;;;;;;5096728;28;20467;-59
2021/05/22 10:01:42;;;;;;;5.50;1.40;;;;;;;;;;5073413;28;20440;-54
2021/05/22 10:04:21;;;;;;;5.60;1.30;;;;;;;;;;5096597;28;20453;-58
2021/05/22 10:06:50;;;;;;;4.27;1.03;;;;;;;;;;5100347;28;20428;-53
2021/05/22 10:09:28;;;;;;;6.00;1.10;;;;;;;;;;5096146;28;20546;-54
2021/05/22 10:14:59;;;;;;;2.03;0.83;;;;;;;;;;5095715;28;20490;-61
2021/05/22 10:17:26;;;;;;;3.93;1.10;;;;;;;;;;5096295;28;20463;-56
2021/05/22 10:20:01;;;;;;;5.63;1.17;;;;;;;;;;5096040;28;20467;-56
2021/05/22 10:22:28;;;;;;;5.47;2.93;;;;;;;;;;5095535;28;20440;-55
2021/05/22 10:24:55;;;;;;;6.50;1.37;;;;;;;;;;5095218;28;20460;-56
2021/05/22 10:27:30;;;;;;;2.77;0.83;;;;;;;;;;5096279;28;20467;-56
2021/05/22 10:29:57;;;;;;;2.77;1.03;;;;;;;;;;5095752;28;20428;-57
2021/05/22 10:32:26;;;;;;;2.47;1.07;;;;;;;;;;5095922;28;20465;-57
2021/05/22 10:34:54;;;;;;;5.60;2.20;;;;;;;;;;5096638;28;20487;-55
2021/05/22 10:37:38;;;;;;;5.37;1.83;;;;;;;;;;5095708;28;20466;-57
2021/05/22 10:40:24;;;;;;;4.37;1.13;;;;;;;;;;5094655;28;20477;-59
2021/05/22 10:42:53;;;;;;;7.53;1.70;;;;;;;;;;5095348;28;20497;-58
2021/05/22 10:45:29;;;;;;;4.30;1.33;;;;;;;;;;5089070;28;20529;-59
2021/05/22 10:51:00;;;;;;;3.87;1.20;;;;;;;;;;5078312;28;20508;-54
2021/05/22 10:53:32;;;;;;;5.60;2.13;;;;;;;;;;5095948;28;20430;-61
2021/05/22 10:56:08;;;;;;;3.00;1.23;;;;;;;;;;5095910;28;20496;-60
2021/05/22 10:58:35;;;;;;;3.60;1.43;;;;;;;;;;5105042;28;20495;-57
2021/05/22 11:01:35;;;;;;;7.97;1.63;;;;;;;;;;5115819;28;20455;-57
2021/05/22 11:04:22;;;;;;;5.97;1.43;;;;;;;;;;5034109;28;20513;-56
2021/05/22 11:06:55;;;;;;;5.60;1.20;;;;;;;;;;5028923;28;20523;-58
2021/05/22 11:09:40;;;;;;;4.97;1.13;;;;;;;;;;5065153;28;20452;-56
2021/05/22 11:12:29;;;;;;;5.03;1.50;;;;;;;;;;5078402;28;20445;-59
2021/05/22 11:14:56;;;;;;;6.23;1.10;;;;;;;;;;5075786;28;20456;-59
2021/05/22 11:17:38;;;;;;;8.00;1.30;;;;;;;;;;5075943;28;20437;-55
2021/05/22 11:20:22;;;;;;;3.13;1.20;;;;;;;;;;5065777;28;20445;-57
2021/05/22 11:23:05;;;;;;;5.57;2.17;;;;;;;;;;5095395;28;20456;-52
2021/05/22 11:25:45;;;;;;;4.47;1.33;;;;;;;;;;5095006;28;20531;-59
2021/05/22 11:28:18;;;;;;;6.43;1.40;;;;;;;;;;5094562;28;20555;-54
2021/05/22 11:31:06;;;;;;;3.40;1.47;;;;;;;;;;5095009;28;20541;-55
2021/05/22 11:33:33;;;;;;;3.57;1.50;;;;;;;;;;5095007;28;20460;-58
2021/05/22 11:39:35;;;;;;;3.23;1.17;;;;;;;;;;5032837;28;20430;-57
2021/05/22 11:42:21;;;;;;;4.07;1.40;;;;;;;;;;5072798;28;20433;-56
2021/05/22 11:45:02;;;;;;;6.70;1.40;;;;;;;;;;5075059;28;20773;-55
2021/05/22 11:47:33;;;;;;;3.43;1.53;;;;;;;;;;5094642;28;20464;-53
2021/05/22 11:50:00;;;;;;;3.23;1.40;;;;;;;;;;5092585;28;20452;-55
2021/05/22 11:52:58;;;;;;;14.30;2.20;;;;;;;;;;5094342;28;20463;-58
2021/05/22 11:55:25;;;;;;;7.60;2.10;;;;;;;;;;5092849;28;20496;-58
2021/05/22 11:58:12;;;;;;;7.30;1.20;;;;;;;;;;5094516;28;20463;-56
2021/05/22 12:00:41;;;;;;;5.57;1.57;;;;;;;;;;5094461;28;20448;-56
2021/05/22 12:03:09;;;;;;;6.63;1.93;;;;;;;;;;5094178;28;20464;-61
2021/05/22 12:05:51;;;;;;;9.40;2.33;;;;;;;;;;5094116;28;20420;-61
2021/05/22 12:08:19;;;;;;;3.80;1.73;;;;;;;;;;5095170;28;20488;-52
2021/05/22 12:10:46;;;;;;;4.40;1.53;;;;;;;;;;5094599;28;20443;-57
2021/05/22 12:13:18;;;;;;;4.57;1.80;;;;;;;;;;5079498;28;20453;-60
2021/05/22 12:15:49;;;;;;;5.47;1.40;;;;;;;;;;5074061;28;20458;-56
2021/05/22 12:18:18;;;;;;;5.93;1.47;;;;;;;;;;5074395;28;20454;-58
2021/05/22 12:20:48;;;;;;;5.93;2.10;;;;;;;;;;5088727;28;20459;-54
2021/05/22 12:23:25;;;;;;;4.30;1.43;;;;;;;;;;5094522;28;20467;-55
2021/05/22 12:25:52;;;;;;;4.00;1.17;;;;;;;;;;5094135;28;20444;-58
2021/05/22 12:28:19;;;;;;;5.40;1.60;;;;;;;;;;5093983;28;20625;-56
2021/05/22 12:30:47;;;;;;;4.90;1.23;;;;;;;;;;5093610;28;21094;-59
2021/05/22 12:33:17;;;;;;;7.10;1.20;;;;;;;;;;5094147;28;20460;-52
2021/05/22 12:35:46;;;;;;;3.23;1.70;;;;;;;;;;5094014;28;20440;-51
2021/05/22 12:38:12;;;;;;;7.23;1.30;;;;;;;;;;5094286;28;20633;-56
2021/05/22 12:40:57;;;;;;;3.67;1.20;;;;;;;;;;5102465;28;20499;-52
2021/05/22 12:43:24;;;;;;;6.77;2.17;;;;;;;;;;5114503;28;20462;-63
2021/05/22 12:45:55;;;;;;;5.40;1.43;;;;;;;;;;5102517;28;20496;-59
2021/05/22 12:48:35;;;;;;;4.47;1.40;;;;;;;;;;5086569;28;20563;-55
2021/05/22 12:51:18;;;;;;;4.87;1.53;;;;;;;;;;5091747;28;20694;-51
2021/05/22 12:53:45;;;;;;;5.93;1.93;;;;;;;;;;5093527;28;20513;-54
2021/05/22 12:56:17;;;;;;;6.90;2.00;;;;;;;;;;5093251;28;20445;-50
2021/05/22 12:58:47;;;;;;;4.70;1.80;;;;;;;;;;5093290;28;20478;-57
2021/05/22 13:01:20;;;;;;;7.40;2.47;;;;;;;;;;5092495;28;20455;-56
2021/05/22 13:04:16;;;;;;;9.53;1.80;;;;;;;;;;5091371;28;20452;-57
2021/05/22 13:06:43;;;;;;;5.37;1.90;;;;;;;;;;5074032;28;20465;-58
2021/05/22 13:09:10;;;;;;;4.57;1.80;;;;;;;;;;5093205;28;20499;-53
2021/05/22 13:11:39;;;;;;;8.83;2.03;;;;;;;;;;5074890;28;20469;-53
2021/05/22 13:14:06;;;;;;;5.10;2.27;;;;;;;;;;5082380;28;20448;-56
2021/05/22 13:16:35;;;;;;;4.60;1.90;;;;;;;;;;5094352;28;20455;-56
2021/05/22 13:19:02;;;;;;;4.30;1.80;;;;;;;;;;5093737;28;20450;-55
2021/05/22 13:21:35;;;;;;;5.30;2.07;;;;;;;;;;5084702;28;20441;-54
2021/05/22 13:24:20;;;;;;;5.53;1.20;;;;;;;;;;5089908;28;20469;-54
2021/05/22 13:26:49;;;;;;;8.23;1.47;;;;;;;;;;5089594;28;20478;-54
2021/05/22 13:29:16;;;;;;;3.00;1.60;;;;;;;;;;5086532;28;20448;-62
2021/05/22 13:35:00;;;;;;;3.40;1.47;;;;;;;;;;5087916;28;20475;-53
2021/05/22 13:37:28;;;;;;;6.00;1.20;;;;;;;;;;5073232;28;20649;-52
2021/05/22 13:39:55;;;;;;;8.93;2.00;;;;;;;;;;5052026;28;20444;-58
2021/05/22 13:42:22;;;;;;;6.00;1.80;;;;;;;;;;5076806;28;20457;-55
2021/05/22 13:44:50;;;;;;;5.00;2.30;;;;;;;;;;5067306;28;20465;-55
2021/05/22 13:47:45;;;;;;;6.23;1.67;;;;;;;;;;5085599;28;20483;-55
2021/05/22 13:50:14;;;;;;;5.57;1.67;;;;;;;;;;5071262;28;20505;-56
2021/05/22 13:52:41;;;;;;;4.90;1.50;;;;;;;;;;5071868;28;20487;-56
2021/05/22 13:55:10;;;;;;;4.13;1.50;;;;;;;;;;5075825;28;20441;-55
2021/05/22 13:57:39;;;;;;;4.07;1.43;;;;;;;;;;5069340;28;20450;-55
2021/05/22 14:00:06;;;;;;;4.23;1.20;;;;;;;;;;5064540;28;20527;-55
2021/05/22 14:02:40;;;;;;;5.93;2.03;;;;;;;;;;5061561;28;20467;-55
2021/05/22 14:05:07;;;;;;;3.83;1.87;;;;;;;;;;5076637;28;20437;-57
2021/05/22 14:07:35;;;;;;;5.83;1.90;;;;;;;;;;5075981;28;20487;-56
2021/05/22 14:10:02;;;;;;;4.83;1.33;;;;;;;;;;5075784;28;20457;-52
2021/05/22 14:12:29;;;;;;;7.00;3.37;;;;;;;;;;5073161;28;20487;-54
2021/05/22 14:14:56;;;;;;;5.90;1.70;;;;;;;;;;5071229;28;20547;-53
2021/05/22 14:17:24;;;;;;;5.93;1.93;;;;;;;;;;5077846;28;20449;-51
2021/05/22 14:20:05;;;;;;;6.20;2.00;;;;;;;;;;5074433;28;20452;-57
2021/05/22 14:22:32;;;;;;;5.60;2.37;;;;;;;;;;5071015;28;20472;-53
2021/05/22 14:25:08;;;;;;;4.00;1.40;;;;;;;;;;5066818;28;20476;-55
2021/05/22 14:27:35;;;;;;;6.50;2.27;;;;;;;;;;5077003;28;20530;-58
2021/05/22 14:30:01;;;;;;;3.63;1.47;;;;;;;;;;5077430;28;20453;-52
2021/05/22 14:32:28;;;;;;;6.03;2.27;;;;;;;;;;5076898;28;20438;-51
2021/05/22 14:34:58;;;;;;;6.80;1.50;;;;;;;;;;5085715;28;20506;-49
2021/05/22 14:37:29;;;;;;;4.67;1.23;;;;;;;;;;5094176;28;20463;-54
2021/05/22 14:39:58;;;;;;;4.00;1.50;;;;;;;;;;5093829;28;20475;-59
2021/05/22 14:42:27;;;;;;;5.77;1.93;;;;;;;;;;5096597;28;20453;-58
2021/05/22 14:44:54;;;;;;;5.27;1.80;;;;;;;;;;5103404;28;20452;-60
2021/05/22 14:47:38;;;;;;;7.23;2.27;;;;;;;;;;5096299;28;20475;-57
2021/05/22 14:50:07;;;;;;;5.40;1.50;;;;;;;;;;5088801;28;20441;-53
2021/05/22 14:52:35;;;;;;;2.87;1.67;;;;;;;;;;5082262;28;20440;-57
2021/05/22 14:55:05;;;;;;;3.97;1.80;;;;;;;;;;5101420;28;20464;-59
2021/05/22 14:57:33;;;;;;;3.90;1.40;;;;;;;;;;5084352;28;20452;-54
2021/05/22 15:00:00;;;;;;;7.63;3.30;;;;;;;;;;5085192;28;20459;-60
2021/05/22 15:02:47;;;;;;;5.07;2.47;;;;;;;;;;5098224;28;20511;-57
2021/05/22 15:05:15;;;;;;;4.40;2.03;;;;;;;;;;5089465;28;20509;-56
2021/05/22 15:07:41;;;;;;;4.90;1.57;;;;;;;;;;5090367;28;20526;-54
2021/05/22 15:10:46;;;;;;;6.50;3.47;;;;;;;;;;5095855;28;20474;-55
2021/05/22 15:13:15;;;;;;;4.30;2.47;;;;;;;;;;5088421;28;20944;-58
2021/05/22 15:15:47;;;;;;;5.00;2.43;;;;;;;;;;5091105;28;20949;-49
2021/05/22 15:18:30;;;;;;;8.67;3.00;;;;;;;;;;5081472;28;20454;-54
2021/05/22 15:20:57;;;;;;;6.93;2.07;;;;;;;;;;5089082;28;20460;-58
2021/05/22 15:23:25;;;;;;;4.13;1.90;;;;;;;;;;5094147;28;20499;-56
2021/05/22 15:25:59;;;;;;;7.50;2.40;;;;;;;;;;5084005;28;20448;-57
2021/05/22 15:28:27;;;;;;;5.50;1.73;;;;;;;;;;5095165;28;20463;-59
2021/05/22 15:30:54;;;;;;;5.40;1.67;;;;;;;;;;5095242;28;20527;-59
2021/05/22 15:33:21;;;;;;;5.27;2.63;;;;;;;;;;5094647;28;20468;-55
2021/05/22 15:35:48;;;;;;;6.40;2.43;;;;;;;;;;5078751;28;20489;-53
2021/05/22 15:38:33;;;;;;;8.90;4.40;;;;;;;;;;5074983;28;20453;-54
2021/05/22 15:41:00;;;;;;;5.57;2.07;;;;;;;;;;5074782;28;20441;-56
2021/05/22 15:43:33;;;;;;;8.33;3.77;;;;;;;;;;5075267;28;20468;-56
2021/05/22 15:46:20;;;;;;;4.00;1.83;;;;;;;;;;5074341;28;20449;-58